| time (UTC) | temp F | wind direction | speed MPH | gust MPH | rain 1hr in | rain 24hr in | rain mn in | humidity % | barometer mb |
| 20260902013603 | 50 | 135 | 0.0 | 0.0 | 0.00 | 0.55 | 0.00 | 1020.0 | |
| 20260902012103 | 50 | 135 | 0.0 | 0.0 | 0.00 | 0.55 | 0.00 | 1020.2 | |
| 20260902010603 | 50 | 135 | 0.0 | 0.0 | 0.00 | 0.55 | 0.00 | 1020.2 | |
| 20260902005103 | 50 | 135 | 0.0 | 0.0 | 0.00 | 0.55 | 0.00 | 11 | 1020.2 |
| 20260902003603 | 51 | 135 | 0.0 | 0.0 | 0.00 | 0.55 | 0.00 | 12 | 1020.2 |
| 20260902002103 | 51 | 135 | 0.0 | 0.0 | 0.00 | 0.55 | 0.00 | 14 | 1020.4 |
| 20260902000603 | 51 | 135 | 0.0 | 0.0 | 0.00 | 0.55 | 0.00 | 15 | 1020.2 |
| 20260901235103 | 51 | 135 | 0.0 | 0.0 | 0.00 | 0.55 | 0.00 | 18 | 1020.5 |
| 20260901233603 | 52 | 135 | 0.0 | 0.0 | 0.00 | 0.55 | 0.00 | 20 | 1020.5 |
| 20260901232103 | 52 | 135 | 0.0 | 0.0 | 0.00 | 0.55 | 0.00 | 23 | 1020.5 |
| 20260901230603 | 52 | 135 | 0.0 | 0.0 | 0.00 | 0.55 | 0.00 | 24 | 1020.5 |
| 20260901225103 | 53 | 135 | 0.0 | 0.0 | 0.00 | 0.55 | 0.00 | 25 | 1020.5 |
| 20260901223603 | 53 | 135 | 0.0 | 0.0 | 0.00 | 0.55 | 0.00 | 26 | 1020.7 |
| 20260901222103 | 53 | 135 | 0.0 | 0.0 | 0.00 | 0.55 | 0.00 | 28 | 1020.7 |
| 20260901220603 | 54 | 135 | 0.0 | 0.0 | 0.00 | 0.55 | 0.00 | 31 | 1020.9 |
| 20260901215103 | 54 | 135 | 0.0 | 0.0 | 0.00 | 0.55 | 0.00 | 31 | 1020.7 |
| 20260901213603 | 55 | 135 | 0.0 | 0.0 | 0.00 | 0.55 | 0.00 | 34 | 1020.7 |
| 20260901212103 | 55 | 135 | 0.0 | 0.0 | 0.00 | 0.55 | 0.00 | 35 | 1020.9 |
| 20260901210603 | 56 | 135 | 0.0 | 0.0 | 0.00 | 0.55 | 0.00 | 37 | 1020.7 |
| 20260901205103 | 56 | 135 | 0.0 | 0.0 | 0.00 | 0.55 | 0.00 | 39 | 1020.7 |
| 20260901203603 | 57 | 135 | 0.0 | 0.0 | 0.00 | 0.55 | 0.00 | 40 | 1020.7 |
| 20260901202103 | 57 | 135 | 0.0 | 0.0 | 0.00 | 0.55 | 0.00 | 43 | 1020.7 |
| 20260901200603 | 58 | 135 | 0.0 | 0.0 | 0.00 | 0.55 | 0.00 | 44 | 1020.7 |
| 20260901195103 | 59 | 135 | 0.0 | 0.0 | 0.00 | 0.55 | 0.00 | 45 | 1020.7 |
| 20260901193603 | 60 | 135 | 0.0 | 0.0 | 0.00 | 0.55 | 0.00 | 46 | 1020.5 |
| 20260901192103 | 60 | 135 | 0.0 | 0.0 | 0.00 | 0.55 | 0.00 | 46 | 1020.5 |
| 20260901190603 | 60 | 112 | 0.0 | 0.0 | 0.00 | 0.55 | 0.00 | 47 | 1020.2 |
| 20260901185103 | 61 | 112 | 0.0 | 0.0 | 0.00 | 0.55 | 0.00 | 47 | 1019.9 |
| 20260901183603 | 62 | 112 | 0.0 | 0.0 | 0.55 | 0.55 | 0.00 | 47 | 1019.9 |
| 20260901182103 | 63 | 112 | 0.0 | 0.0 | 0.55 | 0.55 | 0.00 | 48 | 1019.7 |
| 20260901180603 | 64 | 112 | 0.0 | 0.0 | 0.55 | 0.55 | 0.00 | 47 | 1019.7 |
| 20260901175103 | 66 | 112 | 0.0 | 0.0 | 0.55 | 0.55 | 0.00 | 46 | 1019.7 |
| 20260901173603 | 68 | 112 | 0.0 | 0.0 | 0.55 | 0.55 | 0.00 | 44 | 1019.5 |
| 20260901172103 | 70 | 112 | 0.0 | 0.0 | 0.00 | 0.00 | 0.00 | 42 | 1019.5 |
| 20260901170603 | 73 | 112 | 0.0 | 0.0 | 0.00 | 0.00 | 0.00 | 40 | 1019.5 |
| 20260901165103 | 80 | 112 | 0.0 | 0.0 | 0.00 | 0.00 | 0.00 | 35 | 1019.7 |
| 20260901163603 | 84 | 22 | 0.0 | 0.0 | 0.00 | 0.00 | 0.00 | 32 | 1019.5 |
| 20260901162103 | 88 | 337 | 0.0 | 0.0 | 0.00 | 0.00 | 0.00 | 30 | 1019.7 |
| 20260901160603 | 88 | 337 | 0.0 | 0.0 | 0.00 | 0.00 | 0.00 | 29 | 1019.5 |
| 20260901155103 | 86 | 337 | 0.0 | 0.0 | 0.00 | 0.00 | 0.00 | 31 | 1019.5 |
| 20260901153603 | 88 | 337 | 0.0 | 0.0 | 0.00 | 0.00 | 0.00 | 28 | 1019.5 |
| 20260901152103 | 89 | 292 | 0.0 | 0.0 | 0.00 | 0.00 | 0.00 | 28 | 1019.5 |
| 20260901150603 | 88 | 22 | 0.0 | 0.0 | 0.00 | 0.00 | 0.00 | 28 | 1019.2 |
| 20260901145103 | 89 | 202 | 0.0 | 0.0 | 0.00 | 0.00 | 0.00 | 28 | 1019.4 |
| 20260901143603 | 87 | 315 | 1.0 | 0.0 | 0.00 | 0.00 | 0.00 | 30 | 1019.4 |
| 20260901142103 | 78 | 90 | 0.0 | 0.0 | 0.00 | 0.00 | 0.00 | 37 | 1019.5 |
| 20260901140603 | 79 | 337 | 3.0 | 0.0 | 0.00 | 0.00 | 0.00 | 35 | 1019.5 |
| 20260901135103 | 81 | 292 | 3.0 | 0.0 | 0.00 | 0.00 | 0.00 | 32 | 1019.5 |
| 20260901133603 | 86 | 270 | 0.0 | 0.0 | 0.00 | 0.00 | 0.00 | 30 | 1019.5 |
| 20260901132103 | 86 | 270 | 0.0 | 0.0 | 0.00 | 0.00 | 0.00 | 30 | 1019.7 |
| 20260901130603 | 84 | 0 | 0.0 | 0.0 | 0.00 | 0.00 | 0.00 | 30 | 1019.9 |
| 20260901125103 | 85 | 202 | 0.0 | 0.0 | 0.00 | 0.00 | 0.00 | 32 | 1020.0 |
| 20260901123603 | 85 | 337 | 0.0 | 0.0 | 0.00 | 0.00 | 0.00 | 32 | 1020.0 |
| 20260901122103 | 84 | 202 | 0.0 | 0.0 | 0.00 | 0.00 | 0.00 | 33 | 1020.0 |
| 20260901120603 | 79 | 112 | 0.0 | 0.0 | 0.00 | 0.00 | 0.00 | 36 | 1020.2 |
| 20260901115103 | 84 | 0 | 0.0 | 0.0 | 0.00 | 0.00 | 0.00 | 31 | 1020.2 |
| 20260901113603 | 84 | 337 | 0.0 | 0.0 | 0.00 | 0.00 | 0.00 | 33 | 1020.2 |
| 20260901112103 | 85 | 22 | 8.0 | 0.0 | 0.00 | 0.00 | 0.00 | 32 | 1020.4 |
| 20260901110603 | 84 | 0 | 0.0 | 0.0 | 0.00 | 0.00 | 0.00 | 32 | 1020.5 |
| 20260901105103 | 78 | 0 | 0.0 | 0.0 | 0.00 | 0.00 | 0.00 | 38 | 1020.5 |
| 20260901103603 | 78 | 315 | 1.0 | 0.0 | 0.00 | 0.00 | 0.00 | 37 | 1020.4 |
| 20260901102103 | 78 | 0 | 0.0 | 0.0 | 0.00 | 0.00 | 0.00 | 36 | 1020.5 |
| 20260901100603 | 79 | 0 | 0.0 | 0.0 | 0.00 | 0.00 | 0.00 | 36 | 1020.5 |
| 20260901095103 | 75 | 337 | 0.0 | 0.0 | 0.00 | 0.00 | 0.00 | 39 | 1020.5 |
| 20260901093603 | 75 | 270 | 5.0 | 0.0 | 0.00 | 0.00 | 0.00 | 39 | 1020.5 |
| 20260901092103 | 75 | 270 | 0.0 | 0.0 | 0.00 | 0.00 | 0.00 | 39 | 1020.5 |
| 20260901090603 | 75 | 270 | 0.0 | 0.0 | 0.00 | 0.00 | 0.00 | 38 | 1020.5 |
| 20260901085103 | 79 | 0 | 5.0 | 0.0 | 0.00 | 0.00 | 0.00 | 35 | 1020.7 |
| 20260901083603 | 82 | 337 | 3.0 | 0.0 | 0.00 | 0.00 | 0.00 | 34 | 1020.5 |
| 20260901082103 | 80 | 292 | 6.0 | 0.0 | 0.00 | 0.00 | 0.00 | 34 | 1020.5 |
| 20260901080603 | 75 | 292 | 0.0 | 0.0 | 0.00 | 0.00 | 0.00 | 34 | 1020.5 |
| 20260901075103 | 66 | 202 | 1.0 | 0.0 | 0.00 | 0.00 | 0.00 | 36 | 1020.5 |
| 20260901073603 | 64 | 202 | 2.0 | 0.0 | 0.00 | 0.00 | 0.00 | 35 | 1020.5 |
| 20260901072103 | 63 | 202 | 0.0 | 0.0 | 0.00 | 0.00 | 0.00 | 34 | 1020.5 |
| 20260901070603 | 62 | 202 | 2.0 | 0.0 | 0.00 | 0.00 | 0.00 | 31 | 1020.5 |
| 20260901065103 | 60 | 202 | 2.0 | 0.0 | 0.00 | 0.00 | 0.00 | 29 | 1020.5 |
| 20260901063603 | 59 | 202 | 0.0 | 0.0 | 0.00 | 0.00 | 0.00 | 27 | 1020.2 |
| 20260901062103 | 57 | 202 | 0.0 | 0.0 | 0.00 | 0.00 | 0.00 | 26 | 1020.4 |
| 20260901060603 | 57 | 202 | 0.0 | 0.0 | 0.00 | 0.00 | 0.00 | 25 | 1020.2 |
| 20260901055103 | 55 | 202 | 0.0 | 0.0 | 0.00 | 0.00 | 0.00 | 25 | 1020.2 |
| 20260901053603 | 54 | 202 | 0.0 | 0.0 | 0.00 | 0.00 | 0.00 | 26 | 1020.4 |
| 20260901052103 | 54 | 202 | 0.0 | 0.0 | 0.00 | 0.00 | 0.00 | 26 | 1020.2 |
| 20260901050603 | 53 | 202 | 0.0 | 0.0 | 0.00 | 0.00 | 0.00 | 27 | 1020.2 |
| 20260901045103 | 53 | 202 | 0.0 | 0.0 | 0.00 | 0.00 | 0.00 | 29 | 1020.2 |
| 20260901043603 | 53 | 202 | 0.0 | 0.0 | 0.00 | 0.00 | 0.00 | 30 | 1020.0 |
| 20260901042103 | 54 | 202 | 0.0 | 0.0 | 0.00 | 0.00 | 0.00 | 31 | 1020.2 |
| 20260901040603 | 54 | 202 | 0.0 | 0.0 | 0.00 | 0.00 | 0.00 | 33 | 1020.2 |
| 20260901035103 | 55 | 202 | 0.0 | 0.0 | 0.00 | 0.00 | 0.00 | 32 | 1020.2 |
| 20260901033603 | 55 | 202 | 0.0 | 0.0 | 0.00 | 0.00 | 0.00 | 31 | 1020.2 |
| 20260901032103 | 55 | 202 | 0.0 | 0.0 | 0.00 | 0.00 | 0.00 | 31 | 1020.2 |
| 20260901030603 | 55 | 202 | 0.0 | 0.0 | 0.00 | 0.00 | 0.00 | 32 | 1020.2 |
| 20260901025103 | 54 | 202 | 0.0 | 0.0 | 0.00 | 0.00 | 0.00 | 33 | 1020.2 |
| 20260901023603 | 54 | 202 | 0.0 | 0.0 | 0.00 | 0.00 | 0.00 | 34 | 1020.4 |
| 20260901022103 | 54 | 202 | 0.0 | 0.0 | 0.00 | 0.00 | 0.00 | 36 | 1020.5 |
| 20260901020603 | 55 | 202 | 0.0 | 0.0 | 0.00 | 0.00 | 0.00 | 36 | 1020.5 |
| 20260901015103 | 55 | 202 | 0.0 | 0.0 | 0.00 | 0.04 | 0.00 | 36 | 1020.4 |